sensor_id;sensor_type;location;lat;lon;timestamp;P1;durP1;ratioP1;P2;durP2;ratioP2
57071;SDS011;42956;51.366;11.298;2022-12-16T08:31:51;53.85;;;23.38;;
57071;SDS011;42956;51.366;11.298;2022-12-16T08:34:37;56.58;;;25.80;;
57071;SDS011;42956;51.366;11.298;2022-12-16T08:37:22;60.75;;;26.55;;
57071;SDS011;42956;51.366;11.298;2022-12-16T08:40:08;79.88;;;29.50;;
57071;SDS011;42956;51.366;11.298;2022-12-16T08:43:02;49.75;;;25.33;;
57071;SDS011;42956;51.366;11.298;2022-12-16T08:45:51;51.80;;;25.90;;
57071;SDS011;42956;51.366;11.298;2022-12-16T08:48:39;59.72;;;24.13;;
57071;SDS011;42956;51.366;11.298;2022-12-16T08:51:25;49.15;;;24.90;;
57071;SDS011;42956;51.366;11.298;2022-12-16T08:54:10;43.17;;;23.05;;
57071;SDS011;42956;51.366;11.298;2022-12-16T08:56:56;44.15;;;22.88;;
57071;SDS011;42956;51.366;11.298;2022-12-16T08:59:41;43.30;;;23.38;;
57071;SDS011;42956;51.366;11.298;2022-12-16T09:02:27;43.63;;;21.83;;
57071;SDS011;42956;51.366;11.298;2022-12-16T09:05:14;49.55;;;25.88;;
57071;SDS011;42956;51.366;11.298;2022-12-16T09:07:59;48.53;;;25.40;;
57071;SDS011;42956;51.366;11.298;2022-12-16T09:10:45;54.22;;;25.52;;
57071;SDS011;42956;51.366;11.298;2022-12-16T09:13:30;45.00;;;25.10;;
57071;SDS011;42956;51.366;11.298;2022-12-16T09:16:17;58.38;;;26.65;;
57071;SDS011;42956;51.366;11.298;2022-12-16T09:19:08;50.45;;;24.58;;
57071;SDS011;42956;51.366;11.298;2022-12-16T09:21:55;54.95;;;24.52;;
57071;SDS011;42956;51.366;11.298;2022-12-16T09:24:40;64.95;;;24.92;;
57071;SDS011;42956;51.366;11.298;2022-12-16T09:27:26;62.90;;;29.27;;
57071;SDS011;42956;51.366;11.298;2022-12-16T09:30:11;47.25;;;25.85;;
57071;SDS011;42956;51.366;11.298;2022-12-16T09:32:57;52.50;;;25.42;;
57071;SDS011;42956;51.366;11.298;2022-12-16T09:35:42;62.35;;;29.30;;
57071;SDS011;42956;51.366;11.298;2022-12-16T09:38:29;51.72;;;25.38;;
57071;SDS011;42956;51.366;11.298;2022-12-16T09:41:20;48.13;;;27.25;;
57071;SDS011;42956;51.366;11.298;2022-12-16T09:44:12;50.30;;;27.73;;
57071;SDS011;42956;51.366;11.298;2022-12-16T09:47:14;60.78;;;29.90;;
57071;SDS011;42956;51.366;11.298;2022-12-16T09:50:00;53.22;;;27.17;;
57071;SDS011;42956;51.366;11.298;2022-12-16T09:52:58;62.13;;;28.27;;
57071;SDS011;42956;51.366;11.298;2022-12-16T09:55:46;65.93;;;32.00;;
57071;SDS011;42956;51.366;11.298;2022-12-16T09:58:34;64.63;;;29.38;;
57071;SDS011;42956;51.366;11.298;2022-12-16T10:01:20;51.20;;;27.55;;
57071;SDS011;42956;51.366;11.298;2022-12-16T10:04:06;52.40;;;27.20;;
57071;SDS011;42956;51.366;11.298;2022-12-16T10:06:52;60.03;;;28.63;;
57071;SDS011;42956;51.366;11.298;2022-12-16T10:09:43;47.70;;;27.58;;
57071;SDS011;42956;51.366;11.298;2022-12-16T10:12:34;54.95;;;27.63;;
57071;SDS011;42956;51.366;11.298;2022-12-16T10:15:25;48.90;;;25.83;;
57071;SDS011;42956;51.366;11.298;2022-12-16T10:18:14;53.35;;;25.65;;
57071;SDS011;42956;51.366;11.298;2022-12-16T10:21:02;56.08;;;27.90;;
57071;SDS011;42956;51.366;11.298;2022-12-16T10:23:58;48.00;;;27.55;;
57071;SDS011;42956;51.366;11.298;2022-12-16T10:26:48;53.08;;;25.50;;
57071;SDS011;42956;51.366;11.298;2022-12-16T10:29:39;45.58;;;26.15;;
57071;SDS011;42956;51.366;11.298;2022-12-16T10:32:28;51.70;;;27.67;;
57071;SDS011;42956;51.366;11.298;2022-12-16T10:35:17;52.03;;;27.08;;
57071;SDS011;42956;51.366;11.298;2022-12-16T10:38:04;52.45;;;26.00;;
57071;SDS011;42956;51.366;11.298;2022-12-16T10:40:50;78.88;;;36.83;;
57071;SDS011;42956;51.366;11.298;2022-12-16T10:43:37;71.65;;;34.05;;
57071;SDS011;42956;51.366;11.298;2022-12-16T10:46:31;62.03;;;31.67;;
57071;SDS011;42956;51.366;11.298;2022-12-16T10:49:17;69.05;;;36.10;;
57071;SDS011;42956;51.366;11.298;2022-12-16T10:52:03;74.93;;;36.35;;
57071;SDS011;42956;51.366;11.298;2022-12-16T10:54:53;65.93;;;35.53;;
57071;SDS011;42956;51.366;11.298;2022-12-16T10:57:44;68.25;;;35.50;;
57071;SDS011;42956;51.366;11.298;2022-12-16T11:00:42;69.38;;;35.47;;
57071;SDS011;42956;51.366;11.298;2022-12-16T11:03:29;67.10;;;34.95;;
57071;SDS011;42956;51.366;11.298;2022-12-16T11:06:24;79.47;;;39.40;;
57071;SDS011;42956;51.366;11.298;2022-12-16T11:09:14;79.30;;;42.88;;
57071;SDS011;42956;51.366;11.298;2022-12-16T11:12:12;81.95;;;44.15;;
57071;SDS011;42956;51.366;11.298;2022-12-16T11:14:58;69.68;;;41.17;;
57071;SDS011;42956;51.366;11.298;2022-12-16T11:18:00;83.22;;;44.70;;
57071;SDS011;42956;51.366;11.298;2022-12-16T11:20:47;81.80;;;44.53;;
57071;SDS011;42956;51.366;11.298;2022-12-16T11:23:47;77.53;;;39.63;;
57071;SDS011;42956;51.366;11.298;2022-12-16T11:26:51;65.43;;;35.35;;
57071;SDS011;42956;51.366;11.298;2022-12-16T11:29:47;61.15;;;34.17;;
57071;SDS011;42956;51.366;11.298;2022-12-16T11:32:33;63.80;;;34.35;;
57071;SDS011;42956;51.366;11.298;2022-12-16T11:35:22;63.58;;;35.17;;
57071;SDS011;42956;51.366;11.298;2022-12-16T11:38:12;80.47;;;43.03;;
57071;SDS011;42956;51.366;11.298;2022-12-16T11:41:20;84.85;;;43.53;;
57071;SDS011;42956;51.366;11.298;2022-12-16T11:44:09;83.47;;;42.95;;
57071;SDS011;42956;51.366;11.298;2022-12-16T11:46:58;77.45;;;39.38;;
57071;SDS011;42956;51.366;11.298;2022-12-16T11:49:43;77.85;;;40.45;;
57071;SDS011;42956;51.366;11.298;2022-12-16T11:52:28;78.47;;;40.42;;
57071;SDS011;42956;51.366;11.298;2022-12-16T11:55:17;76.03;;;38.88;;
57071;SDS011;42956;51.366;11.298;2022-12-16T11:58:24;71.97;;;39.90;;
57071;SDS011;42956;51.366;11.298;2022-12-16T12:01:13;98.40;;;48.38;;
57071;SDS011;42956;51.366;11.298;2022-12-16T12:04:05;98.22;;;50.70;;
57071;SDS011;42956;51.366;11.298;2022-12-16T12:06:58;103.35;;;52.72;;
57071;SDS011;42956;51.366;11.298;2022-12-16T12:09:48;86.00;;;45.15;;
57071;SDS011;42956;51.366;11.298;2022-12-16T12:12:41;78.80;;;42.72;;
57071;SDS011;42956;51.366;11.298;2022-12-16T12:15:29;68.65;;;36.63;;
57071;SDS011;42956;51.366;11.298;2022-12-16T12:18:21;65.38;;;36.00;;
57071;SDS011;42956;51.366;11.298;2022-12-16T12:21:09;59.40;;;33.40;;
57071;SDS011;42956;51.366;11.298;2022-12-16T12:23:56;61.85;;;34.20;;
57071;SDS011;42956;51.366;11.298;2022-12-16T12:26:43;59.55;;;36.55;;
57071;SDS011;42956;51.366;11.298;2022-12-16T12:29:37;88.28;;;33.17;;
57071;SDS011;42956;51.366;11.298;2022-12-16T12:32:30;58.33;;;33.15;;
57071;SDS011;42956;51.366;11.298;2022-12-16T12:35:23;66.40;;;35.90;;
57071;SDS011;42956;51.366;11.298;2022-12-16T12:38:12;66.55;;;38.00;;
57071;SDS011;42956;51.366;11.298;2022-12-16T12:41:00;74.43;;;38.30;;
57071;SDS011;42956;51.366;11.298;2022-12-16T12:43:49;63.75;;;35.72;;
57071;SDS011;42956;51.366;11.298;2022-12-16T12:46:37;60.58;;;36.63;;
57071;SDS011;42956;51.366;11.298;2022-12-16T12:49:27;58.13;;;32.55;;
57071;SDS011;42956;51.366;11.298;2022-12-16T12:52:16;58.17;;;33.13;;
57071;SDS011;42956;51.366;11.298;2022-12-16T12:55:04;59.78;;;34.08;;
57071;SDS011;42956;51.366;11.298;2022-12-16T12:57:54;60.95;;;34.45;;
57071;SDS011;42956;51.366;11.298;2022-12-16T13:00:40;88.05;;;44.58;;
57071;SDS011;42956;51.366;11.298;2022-12-16T13:03:31;82.28;;;46.42;;
57071;SDS011;42956;51.366;11.298;2022-12-16T13:06:17;79.28;;;39.78;;
57071;SDS011;42956;51.366;11.298;2022-12-16T13:09:20;59.95;;;33.78;;
57071;SDS011;42956;51.366;11.298;2022-12-16T13:12:20;54.60;;;32.83;;
57071;SDS011;42956;51.366;11.298;2022-12-16T13:15:06;60.90;;;34.58;;
57071;SDS011;42956;51.366;11.298;2022-12-16T13:24:26;58.95;;;32.67;;
57071;SDS011;42956;51.366;11.298;2022-12-16T13:27:13;60.28;;;32.83;;
57071;SDS011;42956;51.366;11.298;2022-12-16T13:30:00;55.63;;;31.65;;
57071;SDS011;42956;51.366;11.298;2022-12-16T13:32:52;54.35;;;29.48;;
57071;SDS011;42956;51.366;11.298;2022-12-16T13:35:50;55.13;;;30.08;;
57071;SDS011;42956;51.366;11.298;2022-12-16T13:38:43;50.63;;;29.52;;
57071;SDS011;42956;51.366;11.298;2022-12-16T13:47:56;56.35;;;31.55;;
57071;SDS011;42956;51.366;11.298;2022-12-16T13:50:40;58.67;;;32.28;;
57071;SDS011;42956;51.366;11.298;2022-12-16T13:53:26;65.43;;;37.85;;
57071;SDS011;42956;51.366;11.298;2022-12-16T13:56:12;72.25;;;41.22;;
57071;SDS011;42956;51.366;11.298;2022-12-16T13:58:59;69.25;;;41.65;;
57071;SDS011;42956;51.366;11.298;2022-12-16T14:01:46;70.90;;;42.75;;
57071;SDS011;42956;51.366;11.298;2022-12-16T14:04:38;79.60;;;44.80;;
57071;SDS011;42956;51.366;11.298;2022-12-16T14:07:24;81.97;;;46.08;;
57071;SDS011;42956;51.366;11.298;2022-12-16T14:10:21;86.05;;;43.88;;
57071;SDS011;42956;51.366;11.298;2022-12-16T14:13:08;90.97;;;47.28;;
57071;SDS011;42956;51.366;11.298;2022-12-16T14:15:58;87.82;;;45.40;;
57071;SDS011;42956;51.366;11.298;2022-12-16T14:32:26;82.70;;;41.25;;
57071;SDS011;42956;51.366;11.298;2022-12-16T14:35:14;77.47;;;40.45;;
57071;SDS011;42956;51.366;11.298;2022-12-16T14:38:11;76.10;;;41.35;;
57071;SDS011;42956;51.366;11.298;2022-12-16T14:40:57;90.60;;;47.30;;
57071;SDS011;42956;51.366;11.298;2022-12-16T14:43:42;119.10;;;61.22;;
57071;SDS011;42956;51.366;11.298;2022-12-16T14:46:28;105.10;;;56.78;;
57071;SDS011;42956;51.366;11.298;2022-12-16T14:49:18;99.43;;;51.70;;
57071;SDS011;42956;51.366;11.298;2022-12-16T14:52:11;101.93;;;52.70;;
57071;SDS011;42956;51.366;11.298;2022-12-16T14:54:59;97.68;;;51.55;;
57071;SDS011;42956;51.366;11.298;2022-12-16T14:58:07;125.68;;;52.17;;
57071;SDS011;42956;51.366;11.298;2022-12-16T15:00:53;97.75;;;50.75;;
57071;SDS011;42956;51.366;11.298;2022-12-16T15:03:42;108.55;;;52.97;;
57071;SDS011;42956;51.366;11.298;2022-12-16T15:06:31;97.63;;;51.50;;
57071;SDS011;42956;51.366;11.298;2022-12-16T15:09:20;102.15;;;51.00;;
57071;SDS011;42956;51.366;11.298;2022-12-16T15:12:06;98.50;;;49.92;;
57071;SDS011;42956;51.366;11.298;2022-12-16T15:14:49;101.75;;;51.08;;
57071;SDS011;42956;51.366;11.298;2022-12-16T15:17:42;102.55;;;49.97;;
57071;SDS011;42956;51.366;11.298;2022-12-16T15:20:42;107.35;;;51.33;;
57071;SDS011;42956;51.366;11.298;2022-12-16T15:23:37;100.93;;;52.63;;
57071;SDS011;42956;51.366;11.298;2022-12-16T15:26:24;115.63;;;54.25;;
57071;SDS011;42956;51.366;11.298;2022-12-16T15:35:10;100.32;;;50.35;;
57071;SDS011;42956;51.366;11.298;2022-12-16T15:38:09;98.03;;;50.10;;
57071;SDS011;42956;51.366;11.298;2022-12-16T15:40:57;97.55;;;49.17;;
57071;SDS011;42956;51.366;11.298;2022-12-16T15:43:43;89.10;;;46.72;;
57071;SDS011;42956;51.366;11.298;2022-12-16T15:46:29;81.35;;;42.40;;
57071;SDS011;42956;51.366;11.298;2022-12-16T15:49:16;75.75;;;39.40;;
57071;SDS011;42956;51.366;11.298;2022-12-16T15:52:02;83.60;;;41.88;;
57071;SDS011;42956;51.366;11.298;2022-12-16T15:54:48;84.03;;;40.97;;
57071;SDS011;42956;51.366;11.298;2022-12-16T15:57:35;84.90;;;41.55;;
57071;SDS011;42956;51.366;11.298;2022-12-16T16:00:22;80.55;;;39.42;;
57071;SDS011;42956;51.366;11.298;2022-12-16T16:03:18;77.45;;;40.33;;
57071;SDS011;42956;51.366;11.298;2022-12-16T16:06:12;74.63;;;37.95;;
57071;SDS011;42956;51.366;11.298;2022-12-16T16:08:58;68.90;;;38.75;;
57071;SDS011;42956;51.366;11.298;2022-12-16T16:11:43;85.32;;;38.80;;
57071;SDS011;42956;51.366;11.298;2022-12-16T16:14:39;72.85;;;38.97;;
57071;SDS011;42956;51.366;11.298;2022-12-16T16:17:24;80.47;;;40.80;;
57071;SDS011;42956;51.366;11.298;2022-12-16T16:20:11;75.47;;;38.50;;
57071;SDS011;42956;51.366;11.298;2022-12-16T16:22:57;86.32;;;41.47;;
57071;SDS011;42956;51.366;11.298;2022-12-16T16:25:43;81.75;;;40.33;;
57071;SDS011;42956;51.366;11.298;2022-12-16T16:28:29;84.80;;;42.85;;
57071;SDS011;42956;51.366;11.298;2022-12-16T16:31:17;75.25;;;39.17;;
57071;SDS011;42956;51.366;11.298;2022-12-16T16:34:02;80.70;;;40.38;;
57071;SDS011;42956;51.366;11.298;2022-12-16T16:36:50;77.53;;;39.58;;
57071;SDS011;42956;51.366;11.298;2022-12-16T16:39:36;77.00;;;40.00;;
57071;SDS011;42956;51.366;11.298;2022-12-16T16:42:22;75.80;;;39.50;;
57071;SDS011;42956;51.366;11.298;2022-12-16T16:45:08;71.88;;;37.20;;
57071;SDS011;42956;51.366;11.298;2022-12-16T16:48:02;72.45;;;38.85;;
